createdAt,value
2016-09-28T00:00:04.013Z,0.00
2016-09-28T00:01:04.525Z,0.00
2016-09-28T00:02:05.032Z,0.00
2016-09-28T00:03:05.544Z,0.00
2016-09-28T00:04:06.059Z,0.00
2016-09-28T00:05:06.570Z,0.00
2016-09-28T00:06:07.081Z,0.00
2016-09-28T00:07:07.595Z,0.00
2016-09-28T00:08:08.112Z,0.00
2016-09-28T00:09:08.620Z,0.00
2016-09-28T00:10:09.426Z,0.00
2016-09-28T00:11:09.638Z,0.00
2016-09-28T00:12:10.146Z,0.00
2016-09-28T00:13:12.160Z,0.00
2016-09-28T00:14:11.170Z,0.00
2016-09-28T00:15:11.687Z,0.00
2016-09-28T00:16:12.197Z,0.00
2016-09-28T00:17:12.713Z,0.00
2016-09-28T00:18:13.228Z,0.00
2016-09-28T00:19:13.742Z,0.00
2016-09-28T00:20:14.258Z,0.00
2016-09-28T00:21:14.774Z,0.00
2016-09-28T00:22:15.291Z,0.00
2016-09-28T00:23:15.810Z,0.00
2016-09-28T00:24:16.333Z,0.00
2016-09-28T00:25:16.982Z,0.00
2016-09-28T00:26:17.346Z,0.00
2016-09-28T00:27:17.857Z,0.00
2016-09-28T00:28:18.367Z,0.00
2016-09-28T00:29:18.878Z,0.00
2016-09-28T00:30:19.393Z,0.00
2016-09-28T00:31:19.902Z,0.00
2016-09-28T00:32:20.418Z,0.00
2016-09-28T00:33:20.929Z,0.00
2016-09-28T00:34:21.438Z,0.00
2016-09-28T00:35:22.121Z,0.00
2016-09-28T00:36:22.465Z,0.00
2016-09-28T00:37:22.977Z,0.00
2016-09-28T00:38:23.487Z,0.00
2016-09-28T00:39:23.995Z,0.00
2016-09-28T00:40:24.522Z,0.00
2016-09-28T00:41:25.013Z,0.00
2016-09-28T00:42:25.528Z,0.00
2016-09-28T00:43:26.041Z,0.00
2016-09-28T00:44:26.709Z,0.00
2016-09-28T00:45:27.215Z,0.00
2016-09-28T00:46:27.575Z,0.00
2016-09-28T00:47:28.089Z,0.00
2016-09-28T00:48:28.599Z,0.00
2016-09-28T00:49:29.112Z,0.00
2016-09-28T00:50:29.630Z,0.00
2016-09-28T00:51:30.141Z,0.00
2016-09-28T00:52:30.650Z,0.00
2016-09-28T00:53:31.310Z,0.00
2016-09-28T00:54:31.684Z,0.00
2016-09-28T00:55:32.185Z,0.00
2016-09-28T00:56:32.696Z,0.00
2016-09-28T00:57:33.211Z,0.00
2016-09-28T00:58:33.727Z,0.00
2016-09-28T00:59:34.245Z,0.00
2016-09-28T01:00:34.763Z,0.00
2016-09-28T01:01:35.276Z,0.00
2016-09-28T01:02:35.781Z,0.00
2016-09-28T01:03:36.441Z,0.00
2016-09-28T01:04:36.807Z,0.00
2016-09-28T01:05:37.313Z,0.00
2016-09-28T01:06:37.823Z,0.00
2016-09-28T01:07:38.339Z,0.00
2016-09-28T01:08:38.909Z,0.00
2016-09-28T01:09:39.364Z,0.00
2016-09-28T01:10:40.023Z,0.00
2016-09-28T01:11:40.385Z,0.00
2016-09-28T01:12:40.895Z,0.00
2016-09-28T01:13:41.412Z,0.00
2016-09-28T01:14:41.927Z,0.00
2016-09-28T01:15:42.440Z,0.00
2016-09-28T01:16:42.951Z,0.00
2016-09-28T01:17:43.615Z,0.00
2016-09-28T01:18:43.981Z,0.00
2016-09-28T01:19:44.486Z,0.00
2016-09-28T01:20:44.993Z,0.00
2016-09-28T01:21:45.502Z,0.00
2016-09-28T01:22:46.038Z,0.00
2016-09-28T01:23:46.533Z,0.00
2016-09-28T01:24:47.046Z,0.00
2016-09-28T01:25:47.551Z,0.00
2016-09-28T01:26:48.058Z,0.00
2016-09-28T01:27:48.720Z,0.00
2016-09-28T01:28:49.090Z,0.00
2016-09-28T01:29:49.594Z,0.00
2016-09-28T01:30:51.900Z,0.00
2016-09-28T01:31:50.612Z,0.00
2016-09-28T01:32:51.120Z,0.00
2016-09-28T01:33:51.637Z,0.00
2016-09-28T01:34:52.148Z,0.00
2016-09-28T01:35:52.668Z,0.00
2016-09-28T01:36:53.334Z,0.00
2016-09-28T01:37:53.702Z,0.00
2016-09-28T01:38:54.227Z,0.00
2016-09-28T01:39:54.731Z,0.00
2016-09-28T01:40:55.245Z,0.00
2016-09-28T01:41:55.759Z,0.00
2016-09-28T01:42:56.275Z,0.00
2016-09-28T01:43:56.780Z,0.00
2016-09-28T01:44:57.292Z,0.00
2016-09-28T01:45:57.804Z,0.00
2016-09-28T01:46:58.314Z,0.00
2016-09-28T01:47:58.975Z,0.00
2016-09-28T01:48:59.330Z,0.00
2016-09-28T01:49:59.841Z,0.00
2016-09-28T01:51:00.393Z,0.00
2016-09-28T01:52:01.016Z,0.00
2016-09-28T01:53:01.379Z,0.00
2016-09-28T01:54:01.894Z,0.00
2016-09-28T01:55:02.399Z,0.00
2016-09-28T01:56:02.912Z,0.00
2016-09-28T01:57:03.569Z,0.00
2016-09-28T01:58:03.934Z,0.00
2016-09-28T01:59:04.443Z,0.00
2016-09-28T02:00:04.959Z,0.00
2016-09-28T02:01:05.462Z,0.00
2016-09-28T02:02:05.980Z,0.00
2016-09-28T02:03:06.647Z,0.00
2016-09-28T02:04:07.001Z,0.00
2016-09-28T02:05:07.514Z,0.00
2016-09-28T02:06:08.177Z,0.00
2016-09-28T02:07:08.538Z,0.00
2016-09-28T02:08:09.058Z,0.00
2016-09-28T02:09:09.559Z,0.00
2016-09-28T02:10:10.069Z,0.00
2016-09-28T02:11:10.729Z,0.00
2016-09-28T02:12:11.249Z,0.00
2016-09-28T02:13:11.608Z,0.00
2016-09-28T02:14:12.128Z,0.00
2016-09-28T02:15:12.637Z,0.00
2016-09-28T02:16:13.157Z,0.00
2016-09-28T02:17:13.666Z,0.00
2016-09-28T02:18:14.205Z,0.00
2016-09-28T02:19:14.692Z,0.00
2016-09-28T02:20:15.205Z,0.00
2016-09-28T02:21:15.868Z,0.00
2016-09-28T02:22:16.227Z,0.00
2016-09-28T02:23:16.738Z,0.00
2016-09-28T02:24:17.248Z,0.00
2016-09-28T02:25:17.761Z,0.00
2016-09-28T02:26:18.263Z,0.00
2016-09-28T02:27:18.773Z,0.00
2016-09-28T02:28:19.285Z,0.00
2016-09-28T02:29:19.796Z,0.00
2016-09-28T02:30:20.312Z,0.00
2016-09-28T02:31:20.820Z,0.00
2016-09-28T02:32:21.331Z,0.00
2016-09-28T02:33:21.856Z,0.00
2016-09-28T02:34:22.357Z,0.00
2016-09-28T02:35:23.775Z,0.00
2016-09-28T02:36:23.396Z,0.00
2016-09-28T02:37:23.891Z,0.00
2016-09-28T02:38:24.413Z,0.00
2016-09-28T02:39:24.934Z,0.00
2016-09-28T02:40:25.421Z,0.00
2016-09-28T02:41:25.929Z,0.00
2016-09-28T02:42:26.443Z,0.00
2016-09-28T02:43:26.950Z,0.00
2016-09-28T02:44:27.464Z,0.00
2016-09-28T02:45:27.974Z,0.00
2016-09-28T02:46:28.482Z,0.00
2016-09-28T02:47:29.015Z,0.00
2016-09-28T02:48:29.505Z,0.00
2016-09-28T02:49:30.017Z,0.00
2016-09-28T02:50:30.533Z,0.00
2016-09-28T02:51:31.046Z,0.00
2016-09-28T02:52:31.559Z,0.00
2016-09-28T02:53:32.222Z,0.00
2016-09-28T02:54:32.740Z,0.00
2016-09-28T02:55:33.098Z,0.00
2016-09-28T02:56:33.622Z,0.00
2016-09-28T02:57:34.130Z,0.00
2016-09-28T02:58:34.648Z,0.00
2016-09-28T02:59:35.156Z,0.00
2016-09-28T03:00:35.670Z,0.00
2016-09-28T03:01:36.181Z,0.00
2016-09-28T03:02:36.689Z,0.00
2016-09-28T03:03:37.205Z,0.00
2016-09-28T03:04:37.714Z,0.00
2016-09-28T03:05:39.144Z,0.00
2016-09-28T03:06:38.732Z,0.00
2016-09-28T03:07:39.247Z,0.00
2016-09-28T03:08:39.760Z,0.00
2016-09-28T03:09:40.273Z,0.00
2016-09-28T03:10:40.792Z,0.00
2016-09-28T03:11:41.295Z,0.00
2016-09-28T03:12:41.957Z,0.00
2016-09-28T03:13:42.325Z,0.00
2016-09-28T03:14:42.831Z,0.00
2016-09-28T03:15:43.356Z,0.00
2016-09-28T03:16:43.856Z,0.00
2016-09-28T03:17:44.379Z,0.00
2016-09-28T03:18:45.050Z,0.00
2016-09-28T03:19:45.393Z,0.00
2016-09-28T03:20:45.914Z,0.00
2016-09-28T03:21:46.424Z,0.00
2016-09-28T03:22:46.942Z,0.00
2016-09-28T03:23:47.450Z,0.00
2016-09-28T03:24:47.964Z,0.00
2016-09-28T03:25:48.475Z,0.00
2016-09-28T03:27:49.650Z,0.00
2016-09-28T03:28:50.016Z,0.00
2016-09-28T03:29:50.529Z,0.00
2016-09-28T03:30:51.045Z,0.00
2016-09-28T03:31:51.557Z,0.00
2016-09-28T03:32:52.074Z,0.00
2016-09-28T03:33:52.581Z,0.00
2016-09-28T03:34:53.102Z,0.00
2016-09-28T03:35:53.606Z,0.00
2016-09-28T03:36:54.268Z,0.00
2016-09-28T03:37:54.786Z,0.00
2016-09-28T03:38:55.139Z,0.00
2016-09-28T03:39:55.648Z,0.00
2016-09-28T03:40:56.164Z,0.00
2016-09-28T03:41:56.674Z,0.00
2016-09-28T03:42:57.184Z,0.00
2016-09-28T03:43:57.691Z,0.00
2016-09-28T03:44:58.348Z,0.00
2016-09-28T03:45:58.712Z,0.00
2016-09-28T03:46:59.226Z,0.00
2016-09-28T03:47:59.738Z,0.00
2016-09-28T03:49:00.253Z,0.00
2016-09-28T03:50:00.767Z,0.00
2016-09-28T03:51:01.281Z,0.00
2016-09-28T03:52:01.785Z,0.00
2016-09-28T03:53:02.294Z,0.00
2016-09-28T03:54:02.806Z,0.00
2016-09-28T03:55:03.313Z,0.00
2016-09-28T03:56:03.985Z,0.00
2016-09-28T03:57:04.338Z,0.00
2016-09-28T03:58:04.852Z,0.00
2016-09-28T03:59:05.364Z,0.00
2016-09-28T04:00:05.879Z,0.00
2016-09-28T04:01:06.390Z,0.00
2016-09-28T04:02:06.926Z,0.00
2016-09-28T04:03:07.566Z,0.00
2016-09-28T04:04:07.925Z,0.00
2016-09-28T04:05:08.446Z,0.00
2016-09-28T04:06:08.958Z,0.00
2016-09-28T04:07:09.474Z,0.00
2016-09-28T04:08:09.994Z,0.00
2016-09-28T04:09:10.507Z,0.00
2016-09-28T04:10:11.164Z,0.00
2016-09-28T04:11:11.528Z,0.00
2016-09-28T04:12:12.035Z,0.00
2016-09-28T04:13:12.552Z,0.00
2016-09-28T04:14:13.061Z,0.00
2016-09-28T04:15:13.577Z,0.00
2016-09-28T04:16:14.104Z,0.00
2016-09-28T04:17:14.605Z,0.00
2016-09-28T04:18:15.117Z,0.00
2016-09-28T04:19:15.653Z,0.00
2016-09-28T04:20:16.286Z,0.00
2016-09-28T04:21:16.646Z,0.00
2016-09-28T04:22:17.158Z,0.00
2016-09-28T04:23:17.673Z,0.00
2016-09-28T04:24:18.176Z,0.00
2016-09-28T04:25:18.693Z,0.00
2016-09-28T04:26:19.356Z,0.00
2016-09-28T04:27:19.718Z,0.00
2016-09-28T04:28:20.232Z,0.00
2016-09-28T04:29:20.748Z,0.00
2016-09-28T04:30:21.405Z,0.00
2016-09-28T04:31:21.771Z,0.00
2016-09-28T04:32:22.276Z,0.00
2016-09-28T04:33:22.788Z,0.00
2016-09-28T04:34:23.301Z,0.00
2016-09-28T04:35:23.818Z,0.00
2016-09-28T04:36:24.329Z,0.00
2016-09-28T04:37:24.841Z,0.00
2016-09-28T04:38:25.360Z,0.00
2016-09-28T04:39:26.015Z,0.00
2016-09-28T04:40:26.380Z,0.00
2016-09-28T04:41:27.940Z,0.00
2016-09-28T04:42:27.404Z,0.00
2016-09-28T04:43:27.922Z,0.00
2016-09-28T04:44:28.450Z,0.00
2016-09-28T04:45:29.101Z,0.00
2016-09-28T04:46:29.468Z,0.00
2016-09-28T04:47:29.972Z,0.00
2016-09-28T04:48:30.629Z,0.00
2016-09-28T04:49:30.993Z,0.00
2016-09-28T04:50:31.501Z,0.00
2016-09-28T04:51:32.013Z,0.00
2016-09-28T04:52:32.521Z,0.00
2016-09-28T04:53:33.041Z,0.00
2016-09-28T04:54:33.693Z,0.00
2016-09-28T04:55:34.054Z,0.00
2016-09-28T04:56:36.066Z,0.00
2016-09-28T04:57:35.223Z,0.00
2016-09-28T04:58:35.609Z,0.00
2016-09-28T04:59:36.095Z,0.00
2016-09-28T05:00:36.606Z,0.00
2016-09-28T05:01:37.122Z,0.00
2016-09-28T05:02:37.631Z,0.00
2016-09-28T05:03:38.138Z,0.00
2016-09-28T05:04:38.801Z,0.00
2016-09-28T05:05:39.162Z,0.00
2016-09-28T05:06:39.677Z,0.00
2016-09-28T05:07:40.188Z,0.00
2016-09-28T05:08:40.704Z,0.00
2016-09-28T05:09:41.205Z,0.00
2016-09-28T05:10:41.720Z,0.00
2016-09-28T05:11:42.227Z,0.00
2016-09-28T05:12:42.741Z,0.00
2016-09-28T05:13:43.398Z,0.00
2016-09-28T05:14:43.914Z,0.00
2016-09-28T05:15:44.272Z,0.00
2016-09-28T05:16:44.787Z,0.00
2016-09-28T05:17:45.312Z,0.00
2016-09-28T05:18:45.838Z,0.00
2016-09-28T05:19:46.362Z,0.00
2016-09-28T05:20:46.877Z,0.00
2016-09-28T05:21:47.398Z,0.00
2016-09-28T05:22:48.062Z,0.00
2016-09-28T05:23:48.426Z,0.00
2016-09-28T05:24:49.094Z,0.00
2016-09-28T05:25:49.454Z,0.00
2016-09-28T05:26:49.972Z,0.00
2016-09-28T05:27:50.479Z,0.00
2016-09-28T05:28:51.143Z,0.00
2016-09-28T05:29:51.500Z,0.00
2016-09-28T05:30:52.010Z,0.00
2016-09-28T05:31:52.524Z,0.00
2016-09-28T05:32:53.036Z,0.00
2016-09-28T05:33:53.545Z,0.00
2016-09-28T05:34:54.059Z,0.00
2016-09-28T05:35:54.567Z,0.00
2016-09-28T05:36:55.082Z,0.00
2016-09-28T05:37:55.621Z,0.00
2016-09-28T05:38:56.109Z,0.00
2016-09-28T05:39:56.619Z,0.00
2016-09-28T05:40:57.136Z,0.00
2016-09-28T05:41:57.643Z,0.00
2016-09-28T05:42:58.153Z,0.00
2016-09-28T05:43:58.666Z,1.00
2016-09-28T05:44:59.184Z,1.00
2016-09-28T05:45:59.691Z,1.00
2016-09-28T05:47:00.211Z,1.00
2016-09-28T05:48:00.715Z,1.00
2016-09-28T05:49:01.382Z,1.00
2016-09-28T05:50:01.739Z,1.00
2016-09-28T05:51:02.247Z,1.00
2016-09-28T05:52:02.907Z,0.00
2016-09-28T05:53:03.273Z,0.00
2016-09-28T05:54:03.815Z,0.00
2016-09-28T05:55:04.294Z,0.00
2016-09-28T05:56:04.961Z,0.00
2016-09-28T05:57:05.473Z,1.00
2016-09-28T05:58:05.843Z,1.00
2016-09-28T05:59:06.359Z,1.00
2016-09-28T06:00:06.874Z,2.00
2016-09-28T06:01:07.411Z,2.00
2016-09-28T06:02:08.049Z,2.00
2016-09-28T06:03:08.412Z,2.00
2016-09-28T06:04:08.920Z,2.00
2016-09-28T06:05:09.429Z,2.00
2016-09-28T06:06:09.943Z,3.00
2016-09-28T06:07:10.602Z,3.00
2016-09-28T06:08:10.960Z,3.00
2016-09-28T06:09:11.470Z,3.00
2016-09-28T06:10:11.981Z,2.00
2016-09-28T06:11:12.789Z,2.00
2016-09-28T06:12:13.032Z,2.00
2016-09-28T06:13:13.513Z,2.00
2016-09-28T06:14:14.026Z,2.00
2016-09-28T06:15:14.535Z,1.00
2016-09-28T06:16:15.050Z,2.00
2016-09-28T06:17:15.566Z,2.00
2016-09-28T06:18:16.221Z,2.00
2016-09-28T06:19:16.586Z,2.00
2016-09-28T06:20:17.102Z,2.00
2016-09-28T06:21:17.611Z,2.00
2016-09-28T06:22:18.285Z,3.00
2016-09-28T06:23:18.790Z,3.00
2016-09-28T06:24:19.149Z,4.00
2016-09-28T06:25:19.673Z,5.00
2016-09-28T06:26:20.174Z,5.00
2016-09-28T06:27:20.834Z,5.00
2016-09-28T06:28:21.342Z,5.00
2016-09-28T06:29:21.708Z,6.00
2016-09-28T06:30:22.220Z,6.00
2016-09-28T06:31:22.729Z,6.00
2016-09-28T06:32:25.040Z,6.00
2016-09-28T06:33:23.751Z,6.00
2016-09-28T06:34:24.260Z,6.00
2016-09-28T06:35:24.772Z,7.00
2016-09-28T06:36:25.291Z,7.00
2016-09-28T06:37:25.809Z,6.00
2016-09-28T06:38:26.328Z,5.00
2016-09-28T06:39:26.840Z,5.00
2016-09-28T06:40:27.356Z,7.00
2016-09-28T06:41:27.862Z,8.00
2016-09-28T06:42:28.385Z,9.00
2016-09-28T06:43:28.890Z,9.00
2016-09-28T06:44:29.402Z,9.00
2016-09-28T06:45:29.913Z,10.00
2016-09-28T06:46:30.424Z,10.00
2016-09-28T06:47:30.944Z,9.00
2016-09-28T06:48:31.450Z,9.00
2016-09-28T06:49:31.965Z,10.00
2016-09-28T06:50:32.621Z,11.00
2016-09-28T06:51:32.985Z,11.00
2016-09-28T06:52:33.492Z,11.00
2016-09-28T06:53:34.010Z,11.00
2016-09-28T06:54:34.517Z,11.00
2016-09-28T06:55:35.180Z,11.00
2016-09-28T06:56:35.561Z,10.00
2016-09-28T06:57:36.056Z,9.00
2016-09-28T06:58:36.571Z,9.00
2016-09-28T06:59:37.231Z,10.00
2016-09-28T07:00:37.592Z,10.00
2016-09-28T07:01:38.133Z,10.00
2016-09-28T07:02:39.819Z,9.00
2016-09-28T07:03:39.132Z,7.00
2016-09-28T07:04:39.791Z,8.00
2016-09-28T07:05:40.306Z,8.00
2016-09-28T07:06:40.678Z,7.00
2016-09-28T07:07:41.185Z,9.00
2016-09-28T07:08:41.696Z,9.00
2016-09-28T07:09:42.203Z,10.00
2016-09-28T07:10:42.718Z,11.00
2016-09-28T07:11:43.231Z,11.00
2016-09-28T07:12:43.752Z,11.00
2016-09-28T07:13:44.282Z,11.00
2016-09-28T07:14:44.937Z,12.00
2016-09-28T07:15:45.301Z,12.00
2016-09-28T07:16:45.815Z,10.00
2016-09-28T07:17:46.330Z,11.00
2016-09-28T07:18:46.844Z,11.00
2016-09-28T07:19:47.360Z,11.00
2016-09-28T07:20:47.869Z,11.00
2016-09-28T07:21:48.383Z,10.00
2016-09-28T07:22:48.900Z,10.00
2016-09-28T07:23:49.399Z,11.00
2016-09-28T07:24:50.059Z,11.00
2016-09-28T07:25:50.420Z,10.00
2016-09-28T07:26:50.933Z,10.00
2016-09-28T07:27:51.440Z,11.00
2016-09-28T07:28:51.957Z,11.00
2016-09-28T07:29:52.469Z,12.00
2016-09-28T07:30:53.012Z,13.00
2016-09-28T07:31:53.490Z,14.00
2016-09-28T07:32:54.006Z,15.00
2016-09-28T07:33:54.661Z,16.00
2016-09-28T07:34:55.172Z,17.00
2016-09-28T07:35:55.538Z,18.00
2016-09-28T07:36:56.046Z,18.00
2016-09-28T07:37:56.560Z,17.00
2016-09-28T07:38:57.079Z,16.00
2016-09-28T07:39:57.584Z,16.00
2016-09-28T07:40:58.099Z,16.00
2016-09-28T07:41:58.614Z,16.00
2016-09-28T07:42:59.121Z,15.00
2016-09-28T07:43:59.629Z,15.00
2016-09-28T07:45:00.297Z,15.00
2016-09-28T07:46:00.651Z,16.00
2016-09-28T07:47:01.165Z,16.00
2016-09-28T07:48:01.677Z,15.00
2016-09-28T07:49:02.353Z,15.00
2016-09-28T07:50:02.732Z,14.00
2016-09-28T07:51:03.221Z,13.00
2016-09-28T07:52:03.738Z,13.00
2016-09-28T07:53:04.251Z,14.00
2016-09-28T07:54:04.762Z,14.00
2016-09-28T07:55:05.276Z,14.00
2016-09-28T07:56:05.789Z,13.00
2016-09-28T07:57:06.299Z,13.00
2016-09-28T07:58:06.828Z,13.00
2016-09-28T07:59:07.337Z,12.00
2016-09-28T08:00:07.878Z,12.00
2016-09-28T08:01:08.357Z,12.00
2016-09-28T08:02:08.904Z,13.00
2016-09-28T08:03:09.389Z,13.00
2016-09-28T08:04:09.904Z,13.00
2016-09-28T08:05:10.416Z,14.00
2016-09-28T08:06:10.922Z,15.00
2016-09-28T08:07:11.460Z,16.00
2016-09-28T08:08:13.749Z,18.00
2016-09-28T08:09:12.606Z,19.00
2016-09-28T08:10:13.119Z,19.00
2016-09-28T08:11:13.629Z,21.00
2016-09-28T08:12:13.996Z,22.00
2016-09-28T08:13:14.503Z,22.00
2016-09-28T08:14:15.017Z,18.00
2016-09-28T08:15:15.530Z,15.00
2016-09-28T08:16:16.040Z,11.00
2016-09-28T08:17:16.571Z,13.00
2016-09-28T08:18:17.217Z,14.00
2016-09-28T08:19:17.578Z,14.00
2016-09-28T08:20:18.236Z,18.00
2016-09-28T08:21:18.750Z,20.00
2016-09-28T08:22:19.112Z,24.00
2016-09-28T08:23:19.635Z,26.00
2016-09-28T08:24:20.291Z,34.00
2016-09-28T08:25:20.805Z,40.00
2016-09-28T08:26:21.328Z,54.00
2016-09-28T08:27:21.698Z,68.00
2016-09-28T08:28:22.209Z,38.00
2016-09-28T08:29:22.733Z,34.00
2016-09-28T08:30:23.393Z,58.00
2016-09-28T08:31:23.760Z,28.00
2016-09-28T08:32:24.278Z,25.00
2016-09-28T08:33:24.791Z,33.00
2016-09-28T08:34:25.301Z,30.00
2016-09-28T08:35:25.825Z,79.00
2016-09-28T08:36:26.335Z,88.00
2016-09-28T08:37:26.841Z,89.00
2016-09-28T08:38:27.499Z,83.00
2016-09-28T08:39:27.865Z,48.00
2016-09-28T08:40:28.393Z,44.00
2016-09-28T08:41:28.888Z,31.00
2016-09-28T08:42:29.402Z,29.00
2016-09-28T08:43:30.062Z,24.00
2016-09-28T08:44:30.431Z,21.00
2016-09-28T08:45:30.944Z,21.00
2016-09-28T08:46:31.448Z,20.00
2016-09-28T08:47:31.964Z,20.00
2016-09-28T08:48:32.472Z,19.00
2016-09-28T08:49:32.983Z,21.00
2016-09-28T08:50:33.498Z,23.00
2016-09-28T08:51:34.010Z,22.00
2016-09-28T08:52:34.524Z,29.00
2016-09-28T08:53:35.193Z,36.00
2016-09-28T08:54:35.547Z,36.00
2016-09-28T08:55:36.065Z,35.00
2016-09-28T08:56:36.572Z,20.00
2016-09-28T08:57:37.085Z,18.00
2016-09-28T08:58:37.595Z,16.00
2016-09-28T08:59:38.107Z,14.00
2016-09-28T09:00:38.616Z,13.00
2016-09-28T09:01:39.131Z,13.00
2016-09-28T09:02:39.639Z,14.00
2016-09-28T09:03:40.158Z,15.00
2016-09-28T09:04:40.708Z,15.00
2016-09-28T09:05:41.187Z,16.00
2016-09-28T09:06:41.704Z,17.00
2016-09-28T09:07:42.222Z,17.00
2016-09-28T09:08:42.733Z,17.00
2016-09-28T09:09:43.396Z,16.00
2016-09-28T09:10:43.759Z,15.00
2016-09-28T09:11:44.271Z,15.00
2016-09-28T09:12:44.804Z,16.00
2016-09-28T09:13:45.298Z,17.00
2016-09-28T09:14:45.805Z,17.00
2016-09-28T09:15:46.311Z,16.00
2016-09-28T09:16:46.826Z,17.00
2016-09-28T09:17:47.489Z,20.00
2016-09-28T09:19:39.662Z,19.00
2016-09-28T09:20:48.879Z,18.00
2016-09-28T09:21:49.396Z,18.00
2016-09-28T09:22:49.908Z,20.00
2016-09-28T09:23:50.421Z,22.00
2016-09-28T09:24:50.939Z,22.00
2016-09-28T09:25:51.454Z,21.00
2016-09-28T09:26:52.109Z,20.00
2016-09-28T09:27:52.628Z,22.00
2016-09-28T09:28:52.989Z,23.00
2016-09-28T09:29:53.494Z,26.00
2016-09-28T09:30:54.006Z,20.00
2016-09-28T09:31:54.521Z,24.00
2016-09-28T09:32:55.030Z,25.00
2016-09-28T09:33:55.536Z,24.00
2016-09-28T09:34:56.070Z,23.00
2016-09-28T09:35:56.568Z,23.00
2016-09-28T09:36:57.077Z,24.00
2016-09-28T09:37:57.586Z,24.00
2016-09-28T09:38:58.094Z,23.00
2016-09-28T09:39:58.607Z,21.00
2016-09-28T09:40:59.125Z,21.00
2016-09-28T09:41:59.636Z,20.00
2016-09-28T09:43:00.148Z,19.00
2016-09-28T09:44:00.670Z,22.00
2016-09-28T09:45:01.188Z,23.00
2016-09-28T09:46:01.852Z,23.00
2016-09-28T09:47:02.218Z,22.00
2016-09-28T09:48:02.884Z,22.00
2016-09-28T09:49:03.249Z,23.00
2016-09-28T09:50:03.758Z,25.00
2016-09-28T09:51:04.272Z,23.00
2016-09-28T09:52:04.785Z,20.00
2016-09-28T09:53:05.293Z,20.00
2016-09-28T09:54:05.805Z,18.00
2016-09-28T09:55:06.318Z,18.00
2016-09-28T09:56:06.829Z,21.00
2016-09-28T09:57:07.341Z,21.00
2016-09-28T09:58:07.850Z,22.00
2016-09-28T09:59:08.509Z,24.00
2016-09-28T10:00:08.876Z,24.00
2016-09-28T10:01:09.389Z,24.00
2016-09-28T10:02:09.904Z,22.00
2016-09-28T10:03:10.411Z,21.00
2016-09-28T10:04:10.930Z,21.00
2016-09-28T10:05:11.444Z,21.00
2016-09-28T10:06:11.960Z,20.00
2016-09-28T10:07:12.471Z,21.00
2016-09-28T10:08:12.978Z,21.00
2016-09-28T10:09:13.491Z,19.00
2016-09-28T10:10:14.004Z,18.00
2016-09-28T10:11:14.514Z,18.00
2016-09-28T10:12:15.031Z,19.00
2016-09-28T10:13:15.571Z,20.00
2016-09-28T10:14:16.803Z,20.00
2016-09-28T10:15:16.567Z,19.00
2016-09-28T10:16:17.229Z,17.00
2016-09-28T10:17:17.601Z,16.00
2016-09-28T10:18:18.112Z,15.00
2016-09-28T10:19:18.771Z,16.00
2016-09-28T10:20:19.154Z,16.00
2016-09-28T10:21:19.651Z,18.00
2016-09-28T10:22:20.170Z,18.00
2016-09-28T10:23:20.683Z,18.00
2016-09-28T10:24:21.196Z,18.00
2016-09-28T10:25:21.709Z,17.00
2016-09-28T10:26:22.225Z,17.00
2016-09-28T10:27:22.734Z,19.00
2016-09-28T10:28:23.246Z,19.00
2016-09-28T10:29:23.762Z,19.00
2016-09-28T10:30:24.279Z,18.00
2016-09-28T10:31:24.784Z,18.00
2016-09-28T10:32:26.343Z,19.00
2016-09-28T10:33:25.983Z,19.00
2016-09-28T10:34:26.315Z,18.00
2016-09-28T10:35:26.821Z,16.00
2016-09-28T10:36:27.335Z,16.00
2016-09-28T10:37:27.847Z,17.00
2016-09-28T10:38:28.361Z,17.00
2016-09-28T10:39:28.869Z,16.00
2016-09-28T10:40:29.380Z,16.00
2016-09-28T10:41:29.889Z,16.00
2016-09-28T10:42:30.404Z,16.00
2016-09-28T10:43:30.913Z,16.00
2016-09-28T10:44:31.423Z,16.00
2016-09-28T10:45:31.936Z,15.00
2016-09-28T10:46:32.481Z,15.00
2016-09-28T10:47:32.967Z,15.00
2016-09-28T10:48:33.490Z,15.00
2016-09-28T10:49:34.028Z,16.00
2016-09-28T10:50:34.489Z,18.00
2016-09-28T10:51:35.309Z,20.00
2016-09-28T10:52:35.514Z,20.00
2016-09-28T10:53:36.024Z,20.00
2016-09-28T10:54:36.538Z,20.00
2016-09-28T10:55:37.049Z,21.00
2016-09-28T10:56:37.562Z,23.00
2016-09-28T10:57:38.079Z,24.00
2016-09-28T10:58:38.602Z,24.00
2016-09-28T10:59:39.127Z,22.00
2016-09-28T11:00:39.624Z,20.00
2016-09-28T11:01:40.138Z,21.00
2016-09-28T11:02:40.644Z,22.00
2016-09-28T11:03:41.153Z,23.00
2016-09-28T11:04:41.667Z,21.00
2016-09-28T11:05:42.188Z,20.00
2016-09-28T11:06:42.694Z,17.00
2016-09-28T11:07:43.201Z,17.00
2016-09-28T11:08:43.716Z,16.00
2016-09-28T11:09:44.233Z,16.00
2016-09-28T11:10:44.742Z,16.00
2016-09-28T11:11:45.402Z,16.00
2016-09-28T11:12:45.763Z,15.00
2016-09-28T11:13:46.276Z,14.00
2016-09-28T11:14:46.788Z,14.00
2016-09-28T11:15:47.310Z,15.00
2016-09-28T11:16:47.956Z,15.00
2016-09-28T11:17:48.348Z,14.00
2016-09-28T11:18:48.830Z,15.00
2016-09-28T11:19:49.341Z,15.00
2016-09-28T11:20:49.857Z,14.00
2016-09-28T11:21:50.366Z,14.00
2016-09-28T11:22:50.878Z,15.00
2016-09-28T11:23:51.390Z,15.00
2016-09-28T11:24:51.900Z,16.00
2016-09-28T11:25:52.415Z,16.00
2016-09-28T11:26:52.921Z,15.00
2016-09-28T11:27:53.432Z,15.00
2016-09-28T11:28:53.950Z,15.00
2016-09-28T11:29:54.617Z,16.00
2016-09-28T11:30:54.971Z,17.00
2016-09-28T11:31:55.486Z,18.00
2016-09-28T11:32:56.000Z,18.00
2016-09-28T11:33:56.523Z,17.00
2016-09-28T11:34:57.035Z,17.00
2016-09-28T11:35:57.701Z,17.00
2016-09-28T11:36:58.074Z,17.00
2016-09-28T11:37:58.586Z,18.00
2016-09-28T11:38:59.113Z,18.00
2016-09-28T11:39:59.618Z,18.00
2016-09-28T11:41:00.124Z,18.00
2016-09-28T11:42:00.641Z,17.00
2016-09-28T11:43:01.148Z,20.00
2016-09-28T11:44:01.659Z,23.00
2016-09-28T11:45:02.467Z,25.00
2016-09-28T11:46:02.833Z,25.00
2016-09-28T11:47:03.194Z,26.00
2016-09-28T11:48:03.704Z,27.00
2016-09-28T11:49:04.220Z,28.00
2016-09-28T11:50:06.084Z,28.00
2016-09-28T11:51:05.245Z,30.00
2016-09-28T11:52:05.758Z,32.00
2016-09-28T11:53:06.294Z,33.00
2016-09-28T11:54:06.796Z,34.00
2016-09-28T11:55:07.301Z,71.00
2016-09-28T11:56:07.817Z,73.00
2016-09-28T11:57:08.328Z,50.00
2016-09-28T11:58:08.840Z,30.00
2016-09-28T11:59:09.356Z,34.00
2016-09-28T12:00:09.865Z,36.00
2016-09-28T12:01:10.532Z,37.00
2016-09-28T12:02:10.917Z,37.00
2016-09-28T12:03:11.406Z,37.00
2016-09-28T12:04:11.917Z,36.00
2016-09-28T12:05:12.430Z,43.00
2016-09-28T12:06:12.939Z,45.00
2016-09-28T12:07:13.455Z,45.00
2016-09-28T12:08:13.977Z,41.00
2016-09-28T12:09:14.473Z,60.00
2016-09-28T12:10:14.986Z,82.00
2016-09-28T12:11:15.658Z,46.00
2016-09-28T12:12:16.015Z,43.00
2016-09-28T12:13:16.536Z,42.00
2016-09-28T12:14:17.202Z,66.00
2016-09-28T12:15:17.561Z,71.00
2016-09-28T12:16:18.075Z,68.00
2016-09-28T12:17:18.590Z,77.00
2016-09-28T12:18:19.100Z,88.00
2016-09-28T12:19:19.787Z,86.00
2016-09-28T12:20:20.130Z,70.00
2016-09-28T12:21:20.633Z,67.00
2016-09-28T12:22:21.292Z,66.00
2016-09-28T12:23:21.652Z,68.00
2016-09-28T12:24:22.165Z,84.00
2016-09-28T12:25:22.676Z,85.00
2016-09-28T12:26:23.186Z,96.00
2016-09-28T12:27:23.696Z,98.00
2016-09-28T12:28:24.359Z,72.00
2016-09-28T12:29:24.717Z,50.00
2016-09-28T12:30:25.378Z,42.00
2016-09-28T12:31:25.741Z,38.00
2016-09-28T12:32:26.249Z,36.00
2016-09-28T12:33:26.763Z,32.00
2016-09-28T12:34:27.269Z,30.00
2016-09-28T12:35:27.784Z,28.00
2016-09-28T12:36:28.296Z,26.00
2016-09-28T12:37:28.809Z,25.00
2016-09-28T12:38:29.360Z,24.00
2016-09-28T12:39:29.990Z,25.00
2016-09-28T12:40:30.350Z,26.00
2016-09-28T12:41:30.862Z,28.00
2016-09-28T12:42:31.382Z,29.00
2016-09-28T12:43:32.036Z,31.00
2016-09-28T12:44:32.393Z,36.00
2016-09-28T12:45:32.907Z,49.00
2016-09-28T12:46:33.417Z,50.00
2016-09-28T12:47:33.926Z,46.00
2016-09-28T12:48:34.448Z,43.00
2016-09-28T12:49:34.957Z,49.00
2016-09-28T12:50:35.474Z,50.00
2016-09-28T12:51:36.010Z,47.00
2016-09-28T12:52:36.515Z,48.00
2016-09-28T12:53:37.018Z,47.00
2016-09-28T12:54:37.692Z,46.00
2016-09-28T12:55:38.064Z,44.00
2016-09-28T12:56:38.557Z,40.00
2016-09-28T12:57:39.071Z,42.00
2016-09-28T12:58:39.581Z,42.00
2016-09-28T12:59:40.092Z,42.00
2016-09-28T13:00:40.758Z,42.00
2016-09-28T13:01:41.262Z,40.00
2016-09-28T13:02:41.625Z,37.00
2016-09-28T13:03:42.140Z,38.00
2016-09-28T13:04:42.645Z,35.00
2016-09-28T13:05:43.162Z,35.00
2016-09-28T13:06:43.672Z,40.00
2016-09-28T13:07:44.191Z,40.00
2016-09-28T13:08:44.700Z,35.00
2016-09-28T13:09:45.236Z,35.00
2016-09-28T13:10:45.726Z,34.00
2016-09-28T13:11:46.245Z,36.00
2016-09-28T13:12:46.750Z,36.00
2016-09-28T13:13:47.408Z,38.00